Time;durP1;ratioP1;P1;durP2;ratioP2;P2;SDS_P1;SDS_P2;PMS_P1;PMS_P2;Temp;Humidity;BMP_temperature;BMP_pressure;BME280_temperature;BME280_humidity;BME280_pressure;Samples;Min_cycle;Max_cycle;Signal;HPM_P1;HPM_P2
2022/04/21 00:00:21;;;;;;;16.58;12.38;;;12.70;69.60;;;;;;5050886;28;20226;-79
2022/04/21 00:02:49;;;;;;;16.05;13.40;;;12.70;70.00;;;;;;5044375;28;20213;-79
2022/04/21 00:05:18;;;;;;;11.63;10.35;;;12.60;70.40;;;;;;5067092;28;20199;-79
2022/04/21 00:07:48;;;;;;;12.48;11.13;;;12.70;71.00;;;;;;5078391;28;20212;-79
2022/04/21 00:10:17;;;;;;;15.00;10.48;;;12.70;71.20;;;;;;5072015;28;20226;-78
2022/04/21 00:12:45;;;;;;;11.95;10.07;;;12.70;72.10;;;;;;5061659;28;20214;-79
2022/04/21 00:15:14;;;;;;;11.73;9.70;;;12.70;72.40;;;;;;5049887;28;20214;-79
2022/04/21 00:17:42;;;;;;;10.75;9.63;;;12.70;73.10;;;;;;5062625;28;20213;-79
2022/04/21 00:20:11;;;;;;;10.85;8.80;;;12.70;73.70;;;;;;5050233;28;20241;-79
2022/04/21 00:25:26;;;;;;;9.00;7.43;;;12.50;75.70;;;;;;5053080;28;20198;-79
2022/04/21 00:27:55;;;;;;;8.65;7.55;;;12.50;76.70;;;;;;5045008;28;20664;-78
2022/04/21 00:30:27;;;;;;;7.75;6.93;;;12.50;77.00;;;;;;5065611;28;20226;-79
2022/04/21 00:32:54;;;;;;;7.40;6.53;;;12.70;76.60;;;;;;5052246;28;20202;-79
2022/04/21 00:35:21;;;;;;;7.93;6.25;;;12.60;76.00;;;;;;5065373;28;20222;-79
2022/04/21 00:37:51;;;;;;;6.75;5.50;;;12.60;76.10;;;;;;5057159;28;20207;-79
2022/04/21 00:40:20;;;;;;;6.03;5.47;;;12.70;76.80;;;;;;5051548;28;20214;-79
2022/04/21 00:42:48;;;;;;;4.90;4.50;;;12.80;75.60;;;;;;5063531;28;20571;-79
2022/04/21 00:45:17;;;;;;;4.80;4.22;;;12.90;75.00;;;;;;5050748;28;20195;-79
2022/04/21 00:47:47;;;;;;;7.90;4.53;;;12.90;75.20;;;;;;5068462;28;20213;-79
2022/04/21 00:50:18;;;;;;;4.70;4.30;;;12.90;74.40;;;;;;5045437;28;20226;-78
2022/04/21 00:52:46;;;;;;;4.70;3.83;;;12.80;74.50;;;;;;5064281;28;20207;-79
2022/04/21 00:55:14;;;;;;;6.25;4.13;;;12.70;75.40;;;;;;5049391;28;20194;-79
2022/04/21 00:57:43;;;;;;;4.38;3.80;;;12.50;77.20;;;;;;5049777;28;20194;-79
2022/04/21 01:00:12;;;;;;;6.72;3.88;;;12.40;78.80;;;;;;5042101;28;20226;-79
2022/04/21 01:02:47;;;;;;;4.93;3.88;;;12.40;80.60;;;;;;5062673;28;20530;-79
2022/04/21 01:05:15;;;;;;;4.45;3.70;;;12.30;82.50;;;;;;5052428;28;20200;-79
2022/04/21 01:07:43;;;;;;;5.90;4.07;;;12.10;84.40;;;;;;5045175;28;20207;-79
2022/04/21 01:10:11;;;;;;;5.13;3.63;;;11.90;86.20;;;;;;5050063;28;20218;-79
2022/04/21 01:12:39;;;;;;;4.45;4.03;;;12.10;87.10;;;;;;5049121;28;20194;-79
2022/04/21 01:15:08;;;;;;;4.50;4.10;;;12.10;86.90;;;;;;5048561;28;20229;-79
2022/04/21 01:17:37;;;;;;;5.03;3.72;;;12.10;86.40;;;;;;5059017;28;20680;-79
2022/04/21 01:20:08;;;;;;;4.47;4.05;;;12.30;85.30;;;;;;5042392;28;20214;-79
2022/04/21 01:22:37;;;;;;;6.40;4.03;;;12.40;84.00;;;;;;5065426;28;20570;-79
2022/04/21 01:25:05;;;;;;;5.95;4.47;;;12.30;84.10;;;;;;5047941;28;20195;-79
2022/04/21 01:27:34;;;;;;;6.50;3.95;;;12.40;83.80;;;;;;5061465;28;20193;-79
2022/04/21 01:30:05;;;;;;;4.22;3.83;;;12.50;83.40;;;;;;5048898;28;20223;-79
2022/04/21 01:32:35;;;;;;;3.67;3.38;;;12.60;82.40;;;;;;5043431;28;20653;-79
2022/04/21 01:35:05;;;;;;;4.50;4.07;;;12.40;82.80;;;;;;5056880;28;20205;-78
2022/04/21 01:43:06;;;;;;;5.00;4.38;;;12.20;85.10;;;;;;5060913;28;20648;-78
2022/04/21 01:45:33;;;;;;;4.53;3.83;;;12.10;85.70;;;;;;5064294;28;20191;-78
2022/04/21 01:48:01;;;;;;;6.05;4.70;;;11.80;86.60;;;;;;5060173;28;20202;-78
2022/04/21 01:50:29;;;;;;;5.68;4.35;;;11.60;89.90;;;;;;5060229;28;20245;-78
2022/04/21 01:52:57;;;;;;;5.55;4.38;;;11.50;90.20;;;;;;5046792;28;20227;-78
2022/04/21 01:55:27;;;;;;;6.38;4.65;;;11.50;90.80;;;;;;5045589;28;20198;-79
2022/04/21 01:57:54;;;;;;;6.90;4.60;;;11.30;90.70;;;;;;5071710;28;20218;-78
2022/04/21 02:00:22;;;;;;;4.70;4.22;;;11.10;92.00;;;;;;5055835;28;20245;-78
2022/04/21 02:02:50;;;;;;;4.53;4.13;;;11.10;92.40;;;;;;5058532;28;20202;-78
2022/04/21 02:05:17;;;;;;;4.55;4.15;;;11.00;92.90;;;;;;5058943;28;20210;-78
2022/04/21 02:07:46;;;;;;;4.65;4.07;;;10.80;93.60;;;;;;5060495;28;20217;-78
2022/04/21 02:10:14;;;;;;;6.78;3.95;;;11.00;93.80;;;;;;5068060;28;20237;-78
2022/04/21 02:12:43;;;;;;;5.00;4.18;;;11.00;93.70;;;;;;5064835;28;20202;-78
2022/04/21 02:15:11;;;;;;;5.38;4.45;;;11.10;94.00;;;;;;5051938;28;20190;-79
2022/04/21 02:17:39;;;;;;;5.15;4.60;;;11.00;93.50;;;;;;5043932;28;20211;-78
2022/04/21 02:20:08;;;;;;;5.13;4.55;;;11.00;93.30;;;;;;5052398;28;20223;-79
2022/04/21 02:22:36;;;;;;;4.80;4.30;;;11.10;93.00;;;;;;5059777;28;20221;-78
2022/04/21 02:25:04;;;;;;;5.95;4.65;;;11.00;93.40;;;;;;5044357;28;20195;-79
2022/04/21 02:27:31;;;;;;;5.13;4.30;;;10.90;93.70;;;;;;5040563;28;20210;-78
2022/04/21 02:30:00;;;;;;;4.55;4.15;;;11.00;93.70;;;;;;5063186;28;20714;-78
2022/04/21 02:32:27;;;;;;;6.63;4.70;;;10.90;94.10;;;;;;5059416;28;20656;-78
2022/04/21 02:35:11;;;;;;;4.97;4.57;;;10.80;94.90;;;;;;5067360;28;20209;-78
2022/04/21 02:37:39;;;;;;;5.05;4.63;;;10.50;95.80;;;;;;5055729;28;20215;-78
2022/04/21 02:40:11;;;;;;;6.15;4.55;;;10.60;96.10;;;;;;5042860;28;20237;-78
2022/04/21 02:42:39;;;;;;;6.57;4.57;;;10.40;96.30;;;;;;5058463;28;20203;-78
2022/04/21 02:45:09;;;;;;;5.55;4.50;;;10.40;96.30;;;;;;5064722;28;20212;-78
2022/04/21 02:47:51;;;;;;;6.00;4.78;;;10.50;96.00;;;;;;5064923;28;20198;-78
2022/04/21 02:50:19;;;;;;;8.70;4.93;;;10.50;96.10;;;;;;5035589;28;20223;-78
2022/04/21 02:52:50;;;;;;;5.78;4.50;;;10.50;96.40;;;;;;5058614;28;20194;-78
2022/04/21 02:58:02;;;;;;;5.80;4.60;;;10.20;97.40;;;;;;5058973;28;20222;-78
2022/04/21 03:00:31;;;;;;;7.38;4.78;;;10.30;97.30;;;;;;5049578;28;20223;-78
2022/04/21 03:02:58;;;;;;;5.28;4.45;;;10.40;97.00;;;;;;5048473;28;20217;-78
2022/04/21 03:05:26;;;;;;;5.47;4.70;;;10.50;96.50;;;;;;5047842;28;20210;-78
2022/04/21 03:07:54;;;;;;;5.07;4.57;;;9.90;97.50;;;;;;5041713;28;20203;-78
2022/04/21 03:10:22;;;;;;;6.28;4.78;;;9.80;98.70;;;;;;5046120;28;20215;-78
2022/04/21 03:12:49;;;;;;;5.37;4.87;;;9.60;99.40;;;;;;5038196;28;20213;-78
2022/04/21 03:15:16;;;;;;;5.13;4.63;;;9.50;99.90;;;;;;5044011;28;20194;-78
2022/04/21 03:17:45;;;;;;;5.90;4.03;;;9.20;99.90;;;;;;5051828;28;20237;-78
2022/04/21 03:24:18;;;;;;;4.40;4.00;;;9.30;99.90;;;;;;5053462;28;20668;-78
2022/04/21 03:25:51;;;;;;;6.30;5.07;;;9.30;99.90;;;;;;5046293;28;20198;-77
2022/04/21 03:28:18;;;;;;;4.93;4.17;;;9.20;99.90;;;;;;5048502;28;20190;-78
2022/04/21 03:30:46;;;;;;;5.03;4.53;;;9.20;99.90;;;;;;5055153;28;20225;-78
2022/04/21 03:33:15;;;;;;;4.97;4.40;;;9.00;99.90;;;;;;5051225;28;20210;-78
2022/04/21 03:35:43;;;;;;;5.90;4.40;;;9.10;99.90;;;;;;5051945;28;20194;-78
2022/04/21 03:38:11;;;;;;;4.83;4.43;;;9.20;99.90;;;;;;5040011;28;20225;-78
2022/04/21 03:40:38;;;;;;;6.50;4.13;;;9.00;99.90;;;;;;5048117;28;20230;-78
2022/04/21 03:43:08;;;;;;;8.50;4.93;;;8.70;99.90;;;;;;5042275;28;20204;-78
2022/04/21 03:45:50;;;;;;;4.40;3.77;;;8.80;99.90;;;;;;5063969;28;20317;-78
2022/04/21 03:48:19;;;;;;;5.70;4.90;;;8.90;99.90;;;;;;5042523;28;20688;-79
2022/04/21 03:50:46;;;;;;;6.13;4.60;;;9.10;99.90;;;;;;5059614;28;20234;-78
2022/04/21 03:53:14;;;;;;;6.57;4.67;;;9.10;99.90;;;;;;5048224;28;20198;-78
2022/04/21 03:55:44;;;;;;;5.47;4.60;;;9.20;99.90;;;;;;5062826;28;20206;-78
2022/04/21 03:58:11;;;;;;;4.80;4.30;;;9.10;99.90;;;;;;5045019;28;20222;-77
2022/04/21 04:00:39;;;;;;;5.07;4.57;;;9.10;99.90;;;;;;5042598;28;20219;-78
2022/04/21 04:03:07;;;;;;;5.83;4.13;;;8.70;99.90;;;;;;5054177;28;20683;-78
2022/04/21 04:05:35;;;;;;;6.23;4.67;;;8.60;99.90;;;;;;5057993;28;20202;-78
2022/04/21 04:10:56;;;;;;;6.87;4.60;;;8.10;99.90;;;;;;5062419;28;20218;-78
2022/04/21 04:13:24;;;;;;;6.30;4.30;;;8.30;99.90;;;;;;5065399;28;20201;-78
2022/04/21 04:15:53;;;;;;;4.80;4.40;;;8.40;99.90;;;;;;5066471;28;20588;-78
2022/04/21 04:18:21;;;;;;;6.30;4.57;;;8.60;99.90;;;;;;5046741;28;20222;-78
2022/04/21 04:20:50;;;;;;;6.30;4.43;;;8.80;99.90;;;;;;5053486;28;20226;-78
2022/04/21 04:23:18;;;;;;;6.23;4.40;;;8.70;99.90;;;;;;5049379;28;20199;-77
2022/04/21 04:25:46;;;;;;;7.17;4.17;;;8.60;99.90;;;;;;5065689;28;20207;-78
2022/04/21 04:28:17;;;;;;;6.13;4.87;;;8.60;99.90;;;;;;5060304;28;20562;-78
2022/04/21 04:30:44;;;;;;;6.23;4.60;;;8.60;99.90;;;;;;5038267;28;20223;-77
2022/04/21 04:33:12;;;;;;;5.63;4.40;;;8.50;99.90;;;;;;5044530;28;20190;-76
2022/04/21 04:35:39;;;;;;;5.13;4.63;;;8.60;99.90;;;;;;5045925;28;20201;-75
2022/04/21 04:38:32;;;;;;;5.13;4.53;;;8.70;99.90;;;;;;5061482;28;20210;-75
2022/04/21 04:42:16;;;;;;;6.10;4.50;;;8.70;99.90;;;;;;5045940;28;20225;-75
2022/04/21 04:43:46;;;;;;;9.87;4.70;;;8.60;99.90;;;;;;5037301;28;20207;-76
2022/04/21 04:48:58;;;;;;;4.80;4.17;;;8.50;99.90;;;;;;5047204;28;20182;-75
2022/04/21 04:51:27;;;;;;;5.57;4.97;;;8.60;99.90;;;;;;5048376;28;20203;-75
2022/04/21 04:54:05;;;;;;;5.13;4.63;;;8.60;99.90;;;;;;5045510;28;20217;-76
2022/04/21 04:56:32;;;;;;;7.27;6.07;;;8.70;99.90;;;;;;5051935;28;20213;-76
2022/04/21 04:59:00;;;;;;;6.07;5.20;;;8.90;99.90;;;;;;5045217;28;20225;-77
2022/04/21 05:01:31;;;;;;;8.20;5.27;;;9.30;99.90;;;;;;5047866;28;20186;-76
2022/04/21 05:04:17;;;;;;;6.57;5.30;;;9.60;99.90;;;;;;5046878;28;20194;-76
2022/04/21 05:06:46;;;;;;;5.73;5.20;;;9.40;99.90;;;;;;5042320;28;20205;-76
2022/04/21 05:09:23;;;;;;;5.50;5.00;;;9.20;99.90;;;;;;5044103;28;20215;-76
2022/04/21 05:11:52;;;;;;;6.17;5.40;;;9.20;99.90;;;;;;5052554;28;20199;-76
2022/04/21 05:14:21;;;;;;;7.33;5.17;;;9.30;99.90;;;;;;5041952;28;20203;-76
2022/04/21 05:16:49;;;;;;;6.13;5.53;;;9.40;99.90;;;;;;5069462;28;20709;-76
2022/04/21 05:19:27;;;;;;;6.27;5.63;;;9.50;99.90;;;;;;5043028;28;20218;-76
2022/04/21 05:22:37;;;;;;;5.87;5.27;;;9.70;99.90;;;;;;5042392;28;20198;-76
2022/04/21 05:25:10;;;;;;;7.07;5.70;;;9.70;99.90;;;;;;5060285;28;20201;-76
2022/04/21 05:27:39;;;;;;;6.37;5.70;;;10.00;98.50;;;;;;5039293;28;20199;-76
2022/04/21 05:32:55;;;;;;;5.90;5.30;;;10.20;97.90;;;;;;5034218;28;20183;-77
2022/04/21 05:35:23;;;;;;;6.57;5.80;;;10.20;97.40;;;;;;5058747;28;20230;-78
2022/04/21 05:37:50;;;;;;;6.60;5.50;;;10.50;96.90;;;;;;5040165;28;20227;-77
2022/04/21 05:40:25;;;;;;;6.03;5.30;;;10.40;96.90;;;;;;5045696;28;20219;-77
2022/04/21 05:42:54;;;;;;;7.13;6.30;;;10.40;97.30;;;;;;5059938;28;20198;-77
2022/04/21 05:45:22;;;;;;;6.93;5.60;;;10.60;96.70;;;;;;5052324;28;20194;-78
2022/04/21 05:47:50;;;;;;;6.40;5.37;;;10.50;96.80;;;;;;5041869;28;20221;-76
2022/04/21 05:50:48;;;;;;;6.20;5.67;;;10.80;96.50;;;;;;5067376;28;20230;-76
2022/04/21 05:53:21;;;;;;;8.13;6.13;;;10.90;96.20;;;;;;5051840;28;20206;-78
2022/04/21 05:55:51;;;;;;;6.07;5.57;;;10.90;96.10;;;;;;5065961;28;20206;-79
2022/04/21 05:58:20;;;;;;;7.27;6.13;;;11.10;96.30;;;;;;5057893;28;20218;-80
2022/04/21 06:00:47;;;;;;;7.30;5.53;;;11.00;96.30;;;;;;5054886;28;20222;-79
2022/04/21 06:03:15;;;;;;;6.43;5.60;;;11.00;96.20;;;;;;5047958;28;20195;-77
2022/04/21 06:05:43;;;;;;;6.53;5.50;;;10.90;96.60;;;;;;5038699;28;20198;-76
2022/04/21 06:08:13;;;;;;;6.23;5.63;;;11.10;96.50;;;;;;5062278;28;20588;-78
2022/04/21 06:10:41;;;;;;;7.60;6.03;;;11.20;96.10;;;;;;5042203;28;20684;-78
2022/04/21 06:13:12;;;;;;;8.93;6.20;;;11.10;96.70;;;;;;5043635;28;20201;-78
2022/04/21 06:15:40;;;;;;;10.40;6.40;;;11.00;97.10;;;;;;5060657;28;20213;-78
2022/04/21 06:18:07;;;;;;;7.75;6.47;;;10.80;97.40;;;;;;5034763;28;20211;-78
2022/04/21 06:20:35;;;;;;;6.43;5.80;;;11.00;97.60;;;;;;5051476;28;20218;-78
2022/04/21 06:23:03;;;;;;;6.90;5.80;;;11.20;96.80;;;;;;5081608;28;20224;-78
2022/04/21 06:25:33;;;;;;;7.07;5.40;;;11.20;97.00;;;;;;5056330;28;20201;-78
2022/04/21 06:28:00;;;;;;;6.97;5.50;;;11.20;97.10;;;;;;5049202;28;20203;-78
2022/04/21 06:30:29;;;;;;;6.70;6.03;;;11.30;96.90;;;;;;5050283;28;20693;-79
2022/04/21 06:32:57;;;;;;;7.10;5.82;;;11.30;96.40;;;;;;5041833;28;20190;-78
2022/04/21 06:35:24;;;;;;;8.57;6.13;;;11.30;96.60;;;;;;5055706;28;20193;-78
2022/04/21 06:37:51;;;;;;;7.43;5.80;;;11.60;96.50;;;;;;5073039;28;20197;-77
2022/04/21 06:40:19;;;;;;;6.57;5.90;;;11.70;95.90;;;;;;5069225;28;20232;-77
2022/04/21 06:42:46;;;;;;;7.72;5.85;;;11.80;95.70;;;;;;5048439;28;20206;-76
2022/04/21 06:48:04;;;;;;;6.97;6.15;;;11.80;95.90;;;;;;5047772;28;20183;-78
2022/04/21 06:50:34;;;;;;;7.47;6.00;;;11.70;96.10;;;;;;5032746;28;20218;-79
2022/04/21 06:53:01;;;;;;;9.30;6.57;;;11.90;95.50;;;;;;5070085;28;20194;-78
2022/04/21 06:55:31;;;;;;;7.25;6.00;;;11.80;95.90;;;;;;5052828;28;20201;-78
2022/04/21 06:58:06;;;;;;;6.68;6.05;;;11.80;95.70;;;;;;5067775;28;20202;-78
2022/04/21 07:00:35;;;;;;;7.07;6.35;;;11.90;95.70;;;;;;5070262;28;20222;-78
2022/04/21 07:03:08;;;;;;;6.32;5.72;;;12.00;95.30;;;;;;5038783;28;20214;-78
2022/04/21 07:05:38;;;;;;;7.00;5.95;;;12.10;94.90;;;;;;5055330;28;20213;-78
2022/04/21 07:08:07;;;;;;;7.70;6.35;;;12.20;94.90;;;;;;5056165;28;20690;-78
2022/04/21 07:10:36;;;;;;;6.50;5.93;;;12.20;95.10;;;;;;5046850;28;20599;-77
2022/04/21 07:13:11;;;;;;;6.65;6.05;;;12.10;95.90;;;;;;5040394;28;20202;-76
2022/04/21 07:15:40;;;;;;;6.68;5.93;;;12.20;96.00;;;;;;5044670;28;20199;-78
2022/04/21 07:18:09;;;;;;;5.97;5.47;;;12.30;95.80;;;;;;5060949;28;20209;-78
2022/04/21 07:20:36;;;;;;;8.45;6.22;;;12.20;95.60;;;;;;5039708;28;20222;-79
2022/04/21 07:23:04;;;;;;;5.88;5.32;;;12.40;95.50;;;;;;5040165;28;20202;-78
2022/04/21 07:25:32;;;;;;;5.50;5.00;;;12.50;95.40;;;;;;5053257;28;20198;-78
2022/04/21 07:28:05;;;;;;;5.95;5.00;;;12.50;95.30;;;;;;5069840;28;20666;-78
2022/04/21 07:30:33;;;;;;;7.43;5.00;;;12.30;94.60;;;;;;5055227;28;20210;-78
2022/04/21 07:33:01;;;;;;;4.40;4.00;;;12.30;94.50;;;;;;5052915;28;20565;-78
2022/04/21 07:35:32;;;;;;;5.18;4.68;;;12.30;93.80;;;;;;5055784;28;20652;-78
2022/04/21 07:38:00;;;;;;;5.05;4.55;;;12.30;93.50;;;;;;5068832;28;20206;-78
2022/04/21 07:40:27;;;;;;;5.22;4.60;;;12.30;93.50;;;;;;5059979;28;20229;-78
2022/04/21 07:42:55;;;;;;;4.90;4.50;;;12.60;93.70;;;;;;5075289;28;20427;-78
2022/04/21 07:45:22;;;;;;;5.57;5.07;;;12.70;93.20;;;;;;5071396;28;20194;-78
2022/04/21 07:47:50;;;;;;;6.90;4.93;;;12.70;93.60;;;;;;5047191;28;20206;-78
2022/04/21 07:50:17;;;;;;;5.40;4.50;;;12.80;93.50;;;;;;5055901;28;20218;-78
2022/04/21 07:55:31;;;;;;;4.40;4.00;;;12.70;91.80;;;;;;5051636;28;20195;-78
2022/04/21 07:58:01;;;;;;;5.75;4.50;;;12.50;91.70;;;;;;5054111;28;20206;-78
2022/04/21 08:00:34;;;;;;;5.93;4.90;;;13.30;93.20;;;;;;5058014;28;20237;-80
2022/04/21 08:03:03;;;;;;;6.43;3.92;;;12.90;93.20;;;;;;5059211;28;20197;-78
2022/04/21 08:05:33;;;;;;;7.15;4.75;;;13.60;93.30;;;;;;5059847;28;20198;-80
2022/04/21 08:08:03;;;;;;;16.95;7.47;;;14.00;92.00;;;;;;5053643;28;20217;-79
2022/04/21 08:10:30;;;;;;;13.95;6.45;;;14.20;90.60;;;;;;5054363;28;20206;-79
2022/04/21 08:12:59;;;;;;;9.27;5.53;;;14.50;90.10;;;;;;5062456;28;20203;-78
2022/04/21 08:15:27;;;;;;;6.40;4.70;;;14.70;89.70;;;;;;5055488;28;20191;-79
2022/04/21 08:17:56;;;;;;;6.97;4.93;;;14.20;88.50;;;;;;5048719;28;20214;-77
2022/04/21 08:20:24;;;;;;;6.43;4.50;;;13.60;89.70;;;;;;5053903;28;20589;-77
2022/04/21 08:22:52;;;;;;;5.13;4.63;;;13.60;89.60;;;;;;5051568;28;20221;-77
2022/04/21 08:33:37;;;;;;;6.00;5.05;;;13.20;90.40;;;;;;5052146;28;20202;-78
2022/04/21 08:36:05;;;;;;;12.13;5.35;;;13.70;90.10;;;;;;5049843;28;20212;-78
2022/04/21 08:38:33;;;;;;;8.32;5.10;;;14.20;91.30;;;;;;5050060;28;20197;-78
2022/04/21 08:41:09;;;;;;;6.43;4.97;;;14.10;90.00;;;;;;5049163;28;20218;-78
2022/04/21 08:43:37;;;;;;;6.18;4.35;;;13.90;89.60;;;;;;5047063;28;20217;-78
2022/04/21 08:46:08;;;;;;;6.47;4.18;;;13.70;87.80;;;;;;5056287;28;20785;-77
2022/04/21 08:48:35;;;;;;;6.82;4.65;;;14.00;89.40;;;;;;5053047;28;20191;-77
2022/04/21 08:51:04;;;;;;;6.70;4.60;;;14.00;90.10;;;;;;5063215;28;20211;-77
2022/04/21 08:53:32;;;;;;;5.38;4.05;;;14.30;88.00;;;;;;5051729;28;20205;-78
2022/04/21 08:56:02;;;;;;;7.65;4.68;;;14.50;87.20;;;;;;5055490;28;20198;-78
2022/04/21 08:58:32;;;;;;;6.47;4.43;;;14.00;85.90;;;;;;5070691;28;20277;-78
2022/04/21 09:01:00;;;;;;;4.78;4.13;;;14.10;85.30;;;;;;5067712;28;20226;-78
2022/04/21 09:03:27;;;;;;;5.72;4.40;;;14.10;85.80;;;;;;5050836;28;20568;-77
2022/04/21 09:05:55;;;;;;;5.40;3.97;;;14.20;87.10;;;;;;5056453;28;20210;-78
2022/04/21 09:08:23;;;;;;;6.07;3.60;;;14.40;87.60;;;;;;5044653;28;20207;-77
2022/04/21 09:11:05;;;;;;;4.28;3.83;;;14.50;89.10;;;;;;5061393;28;20211;-77
2022/04/21 09:13:35;;;;;;;7.18;4.60;;;14.80;85.00;;;;;;5058723;28;20191;-78
2022/04/21 09:16:08;;;;;;;7.32;4.28;;;14.90;88.90;;;;;;5042447;28;20536;-78
2022/04/21 09:18:43;;;;;;;5.13;3.50;;;14.80;88.90;;;;;;5044951;28;20202;-79
2022/04/21 09:21:14;;;;;;;9.23;7.28;;;14.20;83.20;;;;;;5064053;28;20582;-79
2022/04/21 09:23:45;;;;;;;51.65;38.35;;;14.40;87.80;;;;;;5052485;28;20195;-78
2022/04/21 09:26:15;;;;;;;13.75;9.82;;;14.30;91.70;;;;;;5052628;28;20222;-79
2022/04/21 09:28:54;;;;;;;61.15;39.63;;;14.10;86.80;;;;;;5046068;28;20202;-76
2022/04/21 09:31:21;;;;;;;33.58;23.88;;;14.60;92.60;;;;;;5049786;28;20197;-76
2022/04/21 09:33:49;;;;;;;143.00;96.78;;;14.40;90.20;;;;;;5050408;28;20203;-78
2022/04/21 09:36:18;;;;;;;25.08;17.80;;;15.40;99.90;;;;;;5041437;28;20201;-77
2022/04/21 09:38:58;;;;;;;23.60;16.85;;;15.30;92.30;;;;;;5052096;28;20205;-78
2022/04/21 09:41:29;;;;;;;15.85;12.35;;;15.20;93.10;;;;;;5050391;28;20552;-77
2022/04/21 09:46:07;;;;;;;6.68;5.35;;;14.90;92.30;;;;;;5048266;28;20202;-76
2022/04/21 09:46:56;;;;;;;11.68;7.43;;;15.20;89.30;;;;;;5051500;28;20206;-77
2022/04/21 09:49:36;;;;;;;8.15;4.82;;;14.60;88.40;;;;;;5065112;28;20214;-77
2022/04/21 09:52:04;;;;;;;6.40;4.82;;;14.40;88.30;;;;;;5042123;28;20206;-77
2022/04/21 09:54:40;;;;;;;9.80;6.05;;;14.40;88.30;;;;;;5047068;28;20205;-78
2022/04/21 09:57:11;;;;;;;6.32;5.40;;;15.30;90.50;;;;;;5047639;28;20675;-77
2022/04/21 09:59:47;;;;;;;8.35;4.47;;;14.80;88.70;;;;;;5056440;28;20685;-77
2022/04/21 10:02:17;;;;;;;4.78;3.83;;;14.60;86.70;;;;;;5047395;28;20197;-78
2022/04/21 10:04:48;;;;;;;4.72;4.18;;;14.40;87.10;;;;;;5062263;28;20202;-78
2022/04/21 10:07:17;;;;;;;4.47;4.07;;;14.30;87.20;;;;;;5064994;28;20226;-79
2022/04/21 10:09:46;;;;;;;4.57;4.13;;;14.40;87.90;;;;;;5049182;28;20578;-78
2022/04/21 10:12:16;;;;;;;5.65;3.63;;;14.30;88.20;;;;;;5053921;28;20210;-78
2022/04/21 10:14:44;;;;;;;5.35;3.60;;;14.30;88.40;;;;;;5051835;28;20235;-78
2022/04/21 10:17:19;;;;;;;4.88;3.60;;;14.20;86.10;;;;;;5049693;28;20547;-78
2022/04/21 10:19:50;;;;;;;4.05;3.65;;;14.20;85.40;;;;;;5051313;28;20229;-79
2022/04/21 10:22:19;;;;;;;5.22;3.35;;;14.30;84.40;;;;;;5047635;28;20198;-77
2022/04/21 10:24:48;;;;;;;5.97;3.50;;;14.20;85.80;;;;;;5060976;28;20545;-77
2022/04/21 10:27:39;;;;;;;3.70;3.38;;;14.40;85.00;;;;;;5045378;28;20199;-76
2022/04/21 10:30:20;;;;;;;4.13;3.72;;;14.40;83.30;;;;;;5040201;28;20599;-76
2022/04/21 10:33:06;;;;;;;6.72;3.65;;;14.40;82.70;;;;;;5039710;28;20193;-76
2022/04/21 10:35:49;;;;;;;5.20;3.45;;;14.60;82.90;;;;;;5049200;28;20198;-76
2022/04/21 10:38:22;;;;;;;4.25;3.85;;;14.60;81.90;;;;;;5044907;28;20202;-76
2022/04/21 10:41:03;;;;;;;4.25;3.90;;;14.60;82.50;;;;;;5047396;28;20233;-76
2022/04/21 10:44:03;;;;;;;4.65;4.13;;;14.70;84.20;;;;;;5047351;28;20201;-76
2022/04/21 10:46:31;;;;;;;5.10;4.47;;;14.70;85.40;;;;;;5043642;28;20194;-77
2022/04/21 10:48:59;;;;;;;5.28;3.90;;;14.90;82.00;;;;;;5049190;28;20213;-78
2022/04/21 10:58:53;;;;;;;4.30;3.90;;;14.70;81.20;;;;;;5045075;28;20190;-77
2022/04/21 11:01:28;;;;;;;6.00;3.38;;;14.80;82.50;;;;;;5048417;28;20221;-76
2022/04/21 11:04:21;;;;;;;3.75;3.10;;;15.50;80.70;;;;;;5042094;28;20656;-78
2022/04/21 11:06:51;;;;;;;3.75;3.42;;;15.90;79.00;;;;;;5052677;28;20210;-78
2022/04/21 11:09:53;;;;;;;8.32;3.67;;;16.20;75.30;;;;;;5059509;28;20218;-78
2022/04/21 11:12:42;;;;;;;6.28;3.78;;;15.90;74.10;;;;;;5057592;28;20241;-77
2022/04/21 11:15:36;;;;;;;4.65;3.42;;;15.80;75.10;;;;;;5058448;28;20566;-77
2022/04/21 11:18:19;;;;;;;5.05;3.85;;;16.20;74.00;;;;;;5034745;28;20205;-78
2022/04/21 11:20:48;;;;;;;6.65;3.80;;;16.40;74.70;;;;;;5045228;28;20218;-78
2022/04/21 11:23:24;;;;;;;5.28;3.30;;;16.20;73.70;;;;;;5068209;28;20202;-78
2022/04/21 11:26:04;;;;;;;3.72;3.30;;;16.50;72.80;;;;;;5053664;28;20654;-77
2022/04/21 11:28:45;;;;;;;3.58;3.28;;;16.60;70.40;;;;;;5048655;28;20202;-78
2022/04/21 11:31:13;;;;;;;4.88;3.72;;;16.70;70.00;;;;;;5053510;28;20217;-78
2022/04/21 11:33:52;;;;;;;5.70;4.13;;;16.70;69.50;;;;;;5069042;28;20577;-78
2022/04/21 11:36:20;;;;;;;4.20;3.80;;;16.60;70.50;;;;;;5057063;28;20206;-79
2022/04/21 11:38:48;;;;;;;4.40;3.60;;;16.10;70.40;;;;;;5041152;28;20197;-77
2022/04/21 11:41:16;;;;;;;6.10;4.28;;;16.20;72.20;;;;;;5049383;28;20218;-78
2022/04/21 11:43:52;;;;;;;7.35;5.28;;;16.50;73.00;;;;;;5062445;28;20210;-77
2022/04/21 11:46:20;;;;;;;4.78;4.30;;;15.80;72.20;;;;;;5051271;28;20193;-77
2022/04/21 11:49:00;;;;;;;7.55;4.80;;;16.30;71.60;;;;;;5047033;28;20206;-77
2022/04/21 11:51:37;;;;;;;5.32;4.13;;;16.70;71.80;;;;;;5032492;28;20214;-78
2022/04/21 11:54:38;;;;;;;6.55;5.32;;;17.00;70.30;;;;;;5042860;28;20209;-78
2022/04/21 11:57:05;;;;;;;5.88;4.15;;;17.30;69.50;;;;;;5050205;28;20205;-78
2022/04/21 11:59:36;;;;;;;5.50;4.25;;;17.50;69.60;;;;;;5043372;28;20214;-78
2022/04/21 12:07:35;;;;;;;4.88;4.40;;;16.60;71.80;;;;;;5046574;28;20202;-78
2022/04/21 12:10:04;;;;;;;5.18;4.50;;;16.70;72.60;;;;;;5064121;28;20226;-78
2022/04/21 12:12:40;;;;;;;6.70;4.88;;;16.20;74.10;;;;;;5063043;28;20191;-78
2022/04/21 12:15:08;;;;;;;5.10;4.60;;;16.50;74.40;;;;;;5052780;28;20202;-78
2022/04/21 12:17:35;;;;;;;4.95;4.32;;;16.60;75.00;;;;;;5061789;28;20209;-77
2022/04/21 12:20:07;;;;;;;5.38;4.63;;;16.90;74.80;;;;;;5050836;28;20225;-78
2022/04/21 12:22:34;;;;;;;5.60;4.90;;;17.00;74.20;;;;;;5062784;28;20233;-78
2022/04/21 12:25:02;;;;;;;6.28;5.38;;;16.70;73.80;;;;;;5050178;28;20194;-78
2022/04/21 12:27:34;;;;;;;7.20;5.25;;;16.40;75.50;;;;;;5062327;28;20545;-78
2022/04/21 12:30:04;;;;;;;5.78;5.28;;;16.80;75.40;;;;;;5049550;28;20218;-78
2022/04/21 12:32:33;;;;;;;5.40;4.78;;;16.80;75.80;;;;;;5048646;28;20190;-77
2022/04/21 12:35:35;;;;;;;8.55;5.20;;;16.80;76.00;;;;;;5039656;28;20211;-77
2022/04/21 12:40:47;;;;;;;8.35;5.63;;;17.40;74.80;;;;;;5046946;28;20229;-76
2022/04/21 12:43:21;;;;;;;7.43;5.10;;;17.50;74.00;;;;;;5049845;28;20202;-78
2022/04/21 12:45:49;;;;;;;5.72;5.13;;;17.30;74.80;;;;;;5051383;28;20281;-77
2022/04/21 12:48:23;;;;;;;5.18;4.68;;;16.80;76.60;;;;;;5063546;28;20203;-79
2022/04/21 12:50:51;;;;;;;5.93;5.18;;;17.40;77.90;;;;;;5062840;28;20232;-76
2022/04/21 12:53:27;;;;;;;5.88;5.05;;;17.30;78.30;;;;;;5041231;28;20214;-77
2022/04/21 12:55:55;;;;;;;5.88;5.10;;;17.30;76.70;;;;;;5046991;28;20197;-77
2022/04/21 12:58:31;;;;;;;8.23;5.43;;;17.40;76.00;;;;;;5047760;28;20194;-76
2022/04/21 13:01:02;;;;;;;6.63;4.85;;;17.20;77.40;;;;;;5041949;28;20568;-78
2022/04/21 13:03:30;;;;;;;5.10;4.70;;;17.40;77.90;;;;;;5045561;28;20226;-80
2022/04/21 13:06:00;;;;;;;7.10;5.22;;;17.50;77.20;;;;;;5046179;28;20203;-80
2022/04/21 13:08:30;;;;;;;6.72;5.30;;;17.60;77.00;;;;;;5053243;28;20202;-80
2022/04/21 13:10:59;;;;;;;6.35;5.10;;;18.20;74.20;;;;;;5046534;28;20227;-80
2022/04/21 13:13:27;;;;;;;6.30;5.70;;;18.50;72.40;;;;;;5052676;28;20198;-81
2022/04/21 13:15:55;;;;;;;5.93;5.43;;;18.60;71.70;;;;;;5055883;28;20194;-80
2022/04/21 13:18:22;;;;;;;6.70;5.90;;;18.50;74.50;;;;;;5062860;28;20205;-80
2022/04/21 13:23:42;;;;;;;6.00;5.40;;;18.60;71.20;;;;;;5048364;28;20284;-80
2022/04/21 13:26:12;;;;;;;7.13;5.68;;;17.80;73.20;;;;;;5067329;28;20202;-80
2022/04/21 13:28:40;;;;;;;8.45;5.97;;;17.70;73.70;;;;;;5051344;28;20198;-80
2022/04/21 13:33:52;;;;;;;7.28;5.15;;;18.50;73.20;;;;;;5068548;28;20209;-80
2022/04/21 13:36:19;;;;;;;5.95;5.35;;;18.70;72.70;;;;;;5063749;28;20213;-80
2022/04/21 13:38:48;;;;;;;5.88;5.38;;;18.70;73.50;;;;;;5054804;28;20210;-81
2022/04/21 13:41:15;;;;;;;6.50;5.18;;;19.60;72.50;;;;;;5060366;28;20218;-80
2022/04/21 13:43:43;;;;;;;5.90;5.00;;;19.00;73.70;;;;;;5051974;28;20197;-80
2022/04/21 13:46:10;;;;;;;8.95;5.30;;;19.30;70.90;;;;;;5065139;28;20554;-80
2022/04/21 13:48:44;;;;;;;6.63;5.30;;;18.80;69.90;;;;;;5051863;28;20262;-80
2022/04/21 13:51:18;;;;;;;6.38;5.40;;;18.80;70.80;;;;;;5062012;28;20245;-80
2022/04/21 13:53:45;;;;;;;5.82;4.70;;;18.70;70.50;;;;;;5049456;28;20210;-81
2022/04/21 13:56:14;;;;;;;6.90;4.95;;;19.10;69.50;;;;;;5048616;28;20218;-80
2022/04/21 13:58:43;;;;;;;8.73;5.60;;;19.30;70.30;;;;;;5040491;28;20194;-80
2022/04/21 14:01:11;;;;;;;6.35;5.15;;;19.60;69.70;;;;;;5048995;28;20230;-79
2022/04/21 14:03:41;;;;;;;6.45;5.40;;;19.40;69.20;;;;;;5050512;28;20715;-79